sensor_id;sensor_type;location;lat;lon;timestamp;P1;durP1;ratioP1;P2;durP2;ratioP2
48849;SDS011;63210;53.370;6.770;2023-06-19T00:02:23;9.73;;;7.13;;
48849;SDS011;63210;53.370;6.770;2023-06-19T00:04:48;8.07;;;6.87;;
48849;SDS011;63210;53.370;6.770;2023-06-19T00:07:14;8.73;;;7.03;;
48849;SDS011;63210;53.370;6.770;2023-06-19T00:09:39;7.15;;;6.45;;
48849;SDS011;63210;53.370;6.770;2023-06-19T00:12:04;8.40;;;6.73;;
48849;SDS011;63210;53.370;6.770;2023-06-19T00:14:30;11.90;;;7.57;;
48849;SDS011;63210;53.370;6.770;2023-06-19T00:16:55;10.93;;;6.28;;
48849;SDS011;63210;53.370;6.770;2023-06-19T00:19:21;7.15;;;6.47;;
48849;SDS011;63210;53.370;6.770;2023-06-19T00:21:46;7.22;;;6.22;;
48849;SDS011;63210;53.370;6.770;2023-06-19T00:24:12;13.50;;;7.10;;
48849;SDS011;63210;53.370;6.770;2023-06-19T00:26:37;8.20;;;7.27;;
48849;SDS011;63210;53.370;6.770;2023-06-19T00:29:02;8.33;;;6.90;;
48849;SDS011;63210;53.370;6.770;2023-06-19T00:31:28;7.72;;;6.93;;
48849;SDS011;63210;53.370;6.770;2023-06-19T00:33:53;8.32;;;7.05;;
48849;SDS011;63210;53.370;6.770;2023-06-19T00:36:19;8.02;;;6.78;;
48849;SDS011;63210;53.370;6.770;2023-06-19T00:38:48;8.05;;;7.25;;
48849;SDS011;63210;53.370;6.770;2023-06-19T00:41:14;10.00;;;6.90;;
48849;SDS011;63210;53.370;6.770;2023-06-19T00:43:40;7.28;;;6.55;;
48849;SDS011;63210;53.370;6.770;2023-06-19T00:46:05;10.53;;;6.60;;
48849;SDS011;63210;53.370;6.770;2023-06-19T00:48:31;7.38;;;6.63;;
48849;SDS011;63210;53.370;6.770;2023-06-19T00:50:56;7.35;;;6.65;;
48849;SDS011;63210;53.370;6.770;2023-06-19T00:53:22;9.90;;;6.60;;
48849;SDS011;63210;53.370;6.770;2023-06-19T00:55:48;8.07;;;6.57;;
48849;SDS011;63210;53.370;6.770;2023-06-19T00:58:13;7.50;;;6.45;;
48849;SDS011;63210;53.370;6.770;2023-06-19T01:00:39;9.15;;;6.50;;
48849;SDS011;63210;53.370;6.770;2023-06-19T01:03:04;8.80;;;6.97;;
48849;SDS011;63210;53.370;6.770;2023-06-19T01:05:30;8.52;;;6.90;;
48849;SDS011;63210;53.370;6.770;2023-06-19T01:07:59;10.40;;;7.13;;
48849;SDS011;63210;53.370;6.770;2023-06-19T01:10:30;7.60;;;6.70;;
48849;SDS011;63210;53.370;6.770;2023-06-19T01:13:01;7.63;;;6.72;;
48849;SDS011;63210;53.370;6.770;2023-06-19T01:17:53;7.32;;;6.63;;
48849;SDS011;63210;53.370;6.770;2023-06-19T01:20:19;10.70;;;6.88;;
48849;SDS011;63210;53.370;6.770;2023-06-19T01:22:45;8.38;;;6.38;;
48849;SDS011;63210;53.370;6.770;2023-06-19T01:25:10;7.03;;;6.32;;
48849;SDS011;63210;53.370;6.770;2023-06-19T01:27:38;9.23;;;7.00;;
48849;SDS011;63210;53.370;6.770;2023-06-19T01:30:04;7.18;;;6.47;;
48849;SDS011;63210;53.370;6.770;2023-06-19T01:34:57;8.25;;;7.28;;
48849;SDS011;63210;53.370;6.770;2023-06-19T01:37:24;10.15;;;7.22;;
48849;SDS011;63210;53.370;6.770;2023-06-19T01:39:52;7.93;;;7.13;;
48849;SDS011;63210;53.370;6.770;2023-06-19T01:42:19;7.32;;;6.63;;
48849;SDS011;63210;53.370;6.770;2023-06-19T01:44:44;7.20;;;6.47;;
48849;SDS011;63210;53.370;6.770;2023-06-19T01:47:10;7.65;;;6.80;;
48849;SDS011;63210;53.370;6.770;2023-06-19T01:49:36;7.68;;;6.88;;
48849;SDS011;63210;53.370;6.770;2023-06-19T01:52:01;8.15;;;6.72;;
48849;SDS011;63210;53.370;6.770;2023-06-19T01:54:26;8.87;;;6.80;;
48849;SDS011;63210;53.370;6.770;2023-06-19T01:56:52;8.15;;;6.43;;
48849;SDS011;63210;53.370;6.770;2023-06-19T01:59:18;7.32;;;6.32;;
48849;SDS011;63210;53.370;6.770;2023-06-19T02:01:43;8.68;;;6.93;;
48849;SDS011;63210;53.370;6.770;2023-06-19T02:04:08;7.93;;;6.50;;
48849;SDS011;63210;53.370;6.770;2023-06-19T02:06:34;9.27;;;6.80;;
48849;SDS011;63210;53.370;6.770;2023-06-19T02:08:59;9.73;;;7.30;;
48849;SDS011;63210;53.370;6.770;2023-06-19T02:11:24;8.73;;;7.70;;
48849;SDS011;63210;53.370;6.770;2023-06-19T02:13:49;8.90;;;6.90;;
48849;SDS011;63210;53.370;6.770;2023-06-19T02:16:15;8.13;;;6.78;;
48849;SDS011;63210;53.370;6.770;2023-06-19T02:18:40;9.82;;;7.47;;
48849;SDS011;63210;53.370;6.770;2023-06-19T02:21:05;7.90;;;6.60;;
48849;SDS011;63210;53.370;6.770;2023-06-19T02:23:31;9.20;;;6.83;;
48849;SDS011;63210;53.370;6.770;2023-06-19T02:25:56;9.23;;;6.95;;
48849;SDS011;63210;53.370;6.770;2023-06-19T02:28:21;8.53;;;6.57;;
48849;SDS011;63210;53.370;6.770;2023-06-19T02:30:46;7.70;;;6.40;;
48849;SDS011;63210;53.370;6.770;2023-06-19T02:33:12;9.43;;;6.60;;
48849;SDS011;63210;53.370;6.770;2023-06-19T02:35:38;8.70;;;6.85;;
48849;SDS011;63210;53.370;6.770;2023-06-19T02:38:03;8.97;;;7.10;;
48849;SDS011;63210;53.370;6.770;2023-06-19T02:40:29;7.20;;;6.50;;
48849;SDS011;63210;53.370;6.770;2023-06-19T02:42:55;8.38;;;7.10;;
48849;SDS011;63210;53.370;6.770;2023-06-19T02:45:20;8.63;;;6.85;;
48849;SDS011;63210;53.370;6.770;2023-06-19T02:47:46;8.52;;;6.72;;
48849;SDS011;63210;53.370;6.770;2023-06-19T02:50:11;8.93;;;6.40;;
48849;SDS011;63210;53.370;6.770;2023-06-19T02:52:36;8.10;;;6.65;;
48849;SDS011;63210;53.370;6.770;2023-06-19T02:55:01;9.30;;;6.43;;
48849;SDS011;63210;53.370;6.770;2023-06-19T02:57:27;7.43;;;6.57;;
48849;SDS011;63210;53.370;6.770;2023-06-19T02:59:52;7.22;;;6.38;;
48849;SDS011;63210;53.370;6.770;2023-06-19T03:02:18;8.98;;;6.88;;
48849;SDS011;63210;53.370;6.770;2023-06-19T03:04:43;7.72;;;6.60;;
48849;SDS011;63210;53.370;6.770;2023-06-19T03:07:09;9.68;;;6.85;;
48849;SDS011;63210;53.370;6.770;2023-06-19T03:09:34;9.80;;;7.03;;
48849;SDS011;63210;53.370;6.770;2023-06-19T03:11:59;6.77;;;6.07;;
48849;SDS011;63210;53.370;6.770;2023-06-19T03:14:25;7.40;;;6.50;;
48849;SDS011;63210;53.370;6.770;2023-06-19T03:16:50;7.70;;;6.90;;
48849;SDS011;63210;53.370;6.770;2023-06-19T03:19:15;7.03;;;6.30;;
48849;SDS011;63210;53.370;6.770;2023-06-19T03:21:40;9.07;;;6.53;;
48849;SDS011;63210;53.370;6.770;2023-06-19T03:24:06;7.50;;;6.70;;
48849;SDS011;63210;53.370;6.770;2023-06-19T03:26:31;11.40;;;6.70;;
48849;SDS011;63210;53.370;6.770;2023-06-19T03:28:57;7.57;;;6.78;;
48849;SDS011;63210;53.370;6.770;2023-06-19T03:31:22;8.33;;;6.70;;
48849;SDS011;63210;53.370;6.770;2023-06-19T03:33:47;7.93;;;6.17;;
48849;SDS011;63210;53.370;6.770;2023-06-19T03:36:12;11.43;;;7.43;;
48849;SDS011;63210;53.370;6.770;2023-06-19T03:38:38;8.35;;;6.40;;
48849;SDS011;63210;53.370;6.770;2023-06-19T03:41:03;8.83;;;7.20;;
48849;SDS011;63210;53.370;6.770;2023-06-19T03:43:28;7.47;;;6.77;;
48849;SDS011;63210;53.370;6.770;2023-06-19T03:45:53;9.13;;;7.33;;
48849;SDS011;63210;53.370;6.770;2023-06-19T03:48:19;8.50;;;7.40;;
48849;SDS011;63210;53.370;6.770;2023-06-19T03:50:44;11.20;;;7.13;;
48849;SDS011;63210;53.370;6.770;2023-06-19T03:53:09;7.20;;;6.50;;
48849;SDS011;63210;53.370;6.770;2023-06-19T03:55:35;9.32;;;6.93;;
48849;SDS011;63210;53.370;6.770;2023-06-19T03:58:00;8.40;;;6.93;;
48849;SDS011;63210;53.370;6.770;2023-06-19T04:00:25;9.02;;;6.82;;
48849;SDS011;63210;53.370;6.770;2023-06-19T04:02:51;7.82;;;6.85;;
48849;SDS011;63210;53.370;6.770;2023-06-19T04:05:16;8.07;;;7.28;;
48849;SDS011;63210;53.370;6.770;2023-06-19T04:07:41;8.30;;;7.20;;
48849;SDS011;63210;53.370;6.770;2023-06-19T04:10:07;8.50;;;6.80;;
48849;SDS011;63210;53.370;6.770;2023-06-19T04:12:32;9.70;;;6.80;;
48849;SDS011;63210;53.370;6.770;2023-06-19T04:14:57;7.73;;;6.63;;
48849;SDS011;63210;53.370;6.770;2023-06-19T04:17:23;12.07;;;6.77;;
48849;SDS011;63210;53.370;6.770;2023-06-19T04:19:48;11.67;;;7.90;;
48849;SDS011;63210;53.370;6.770;2023-06-19T04:22:13;8.57;;;7.03;;
48849;SDS011;63210;53.370;6.770;2023-06-19T04:24:38;9.30;;;6.87;;
48849;SDS011;63210;53.370;6.770;2023-06-19T04:27:04;9.50;;;7.07;;
48849;SDS011;63210;53.370;6.770;2023-06-19T04:29:29;8.48;;;6.68;;
48849;SDS011;63210;53.370;6.770;2023-06-19T04:32:00;8.18;;;7.03;;
48849;SDS011;63210;53.370;6.770;2023-06-19T04:34:25;7.47;;;6.60;;
48849;SDS011;63210;53.370;6.770;2023-06-19T04:36:51;10.68;;;7.35;;
48849;SDS011;63210;53.370;6.770;2023-06-19T04:39:16;7.68;;;6.82;;
48849;SDS011;63210;53.370;6.770;2023-06-19T04:41:45;9.20;;;7.00;;
48849;SDS011;63210;53.370;6.770;2023-06-19T04:44:10;9.02;;;6.72;;
48849;SDS011;63210;53.370;6.770;2023-06-19T04:46:37;12.48;;;7.03;;
48849;SDS011;63210;53.370;6.770;2023-06-19T04:49:02;9.45;;;7.10;;
48849;SDS011;63210;53.370;6.770;2023-06-19T04:51:28;9.20;;;6.38;;
48849;SDS011;63210;53.370;6.770;2023-06-19T04:53:54;8.25;;;7.20;;
48849;SDS011;63210;53.370;6.770;2023-06-19T04:56:20;8.00;;;7.20;;
48849;SDS011;63210;53.370;6.770;2023-06-19T04:58:45;10.17;;;7.03;;
48849;SDS011;63210;53.370;6.770;2023-06-19T05:01:14;9.05;;;7.47;;
48849;SDS011;63210;53.370;6.770;2023-06-19T05:03:40;8.23;;;7.43;;
48849;SDS011;63210;53.370;6.770;2023-06-19T05:06:05;8.60;;;6.90;;
48849;SDS011;63210;53.370;6.770;2023-06-19T05:08:30;8.38;;;7.22;;
48849;SDS011;63210;53.370;6.770;2023-06-19T05:10:56;10.00;;;7.13;;
48849;SDS011;63210;53.370;6.770;2023-06-19T05:13:22;7.93;;;7.10;;
48849;SDS011;63210;53.370;6.770;2023-06-19T05:15:48;12.18;;;6.32;;
48849;SDS011;63210;53.370;6.770;2023-06-19T05:18:13;8.30;;;6.30;;
48849;SDS011;63210;53.370;6.770;2023-06-19T05:20:39;7.35;;;6.63;;
48849;SDS011;63210;53.370;6.770;2023-06-19T05:23:04;6.73;;;5.60;;
48849;SDS011;63210;53.370;6.770;2023-06-19T05:25:29;8.93;;;5.50;;
48849;SDS011;63210;53.370;6.770;2023-06-19T05:27:54;5.77;;;4.70;;
48849;SDS011;63210;53.370;6.770;2023-06-19T05:30:20;7.30;;;5.30;;
48849;SDS011;63210;53.370;6.770;2023-06-19T05:32:45;5.37;;;4.87;;
48849;SDS011;63210;53.370;6.770;2023-06-19T05:35:10;7.87;;;4.73;;
48849;SDS011;63210;53.370;6.770;2023-06-19T05:37:35;9.27;;;4.63;;
48849;SDS011;63210;53.370;6.770;2023-06-19T05:40:01;6.20;;;5.03;;
48849;SDS011;63210;53.370;6.770;2023-06-19T05:42:26;6.00;;;5.15;;
48849;SDS011;63210;53.370;6.770;2023-06-19T05:44:51;5.97;;;4.53;;
48849;SDS011;63210;53.370;6.770;2023-06-19T05:47:16;6.30;;;4.97;;
48849;SDS011;63210;53.370;6.770;2023-06-19T05:49:44;8.65;;;4.82;;
48849;SDS011;63210;53.370;6.770;2023-06-19T05:52:09;8.23;;;4.73;;
48849;SDS011;63210;53.370;6.770;2023-06-19T05:54:34;7.50;;;5.40;;
48849;SDS011;63210;53.370;6.770;2023-06-19T05:57:00;5.72;;;5.22;;
48849;SDS011;63210;53.370;6.770;2023-06-19T05:59:25;5.83;;;4.63;;
48849;SDS011;63210;53.370;6.770;2023-06-19T06:01:50;9.10;;;5.63;;
48849;SDS011;63210;53.370;6.770;2023-06-19T06:04:16;7.73;;;5.00;;
48849;SDS011;63210;53.370;6.770;2023-06-19T06:06:41;8.00;;;5.68;;
48849;SDS011;63210;53.370;6.770;2023-06-19T06:09:06;7.07;;;5.40;;
48849;SDS011;63210;53.370;6.770;2023-06-19T06:11:35;6.47;;;5.10;;
48849;SDS011;63210;53.370;6.770;2023-06-19T06:14:01;7.70;;;5.37;;
48849;SDS011;63210;53.370;6.770;2023-06-19T06:16:26;6.30;;;5.70;;
48849;SDS011;63210;53.370;6.770;2023-06-19T06:18:52;6.43;;;5.82;;
48849;SDS011;63210;53.370;6.770;2023-06-19T06:21:17;6.68;;;6.00;;
48849;SDS011;63210;53.370;6.770;2023-06-19T06:23:42;7.53;;;6.60;;
48849;SDS011;63210;53.370;6.770;2023-06-19T06:26:09;7.15;;;6.28;;
48849;SDS011;63210;53.370;6.770;2023-06-19T06:28:35;8.60;;;7.45;;
48849;SDS011;63210;53.370;6.770;2023-06-19T06:31:00;13.70;;;8.02;;
48849;SDS011;63210;53.370;6.770;2023-06-19T06:33:25;8.55;;;7.55;;
48849;SDS011;63210;53.370;6.770;2023-06-19T06:35:51;9.73;;;8.63;;
48849;SDS011;63210;53.370;6.770;2023-06-19T06:38:16;13.02;;;8.38;;
48849;SDS011;63210;53.370;6.770;2023-06-19T06:40:41;13.05;;;9.20;;
48849;SDS011;63210;53.370;6.770;2023-06-19T06:43:08;10.15;;;9.07;;
48849;SDS011;63210;53.370;6.770;2023-06-19T06:45:34;12.93;;;9.82;;
48849;SDS011;63210;53.370;6.770;2023-06-19T06:47:59;12.68;;;10.30;;
48849;SDS011;63210;53.370;6.770;2023-06-19T06:50:24;10.63;;;8.27;;
48849;SDS011;63210;53.370;6.770;2023-06-19T06:52:50;15.10;;;11.30;;
48849;SDS011;63210;53.370;6.770;2023-06-19T06:55:15;18.80;;;11.38;;
48849;SDS011;63210;53.370;6.770;2023-06-19T06:57:40;13.93;;;10.20;;
48849;SDS011;63210;53.370;6.770;2023-06-19T07:00:06;12.95;;;9.70;;
48849;SDS011;63210;53.370;6.770;2023-06-19T07:02:34;15.05;;;10.52;;
48849;SDS011;63210;53.370;6.770;2023-06-19T07:05:00;10.53;;;8.50;;
48849;SDS011;63210;53.370;6.770;2023-06-19T07:07:25;14.10;;;8.90;;
48849;SDS011;63210;53.370;6.770;2023-06-19T07:09:50;9.27;;;8.00;;
48849;SDS011;63210;53.370;6.770;2023-06-19T07:12:15;8.57;;;7.70;;
48849;SDS011;63210;53.370;6.770;2023-06-19T07:14:41;8.60;;;7.70;;
48849;SDS011;63210;53.370;6.770;2023-06-19T07:17:06;8.10;;;7.00;;
48849;SDS011;63210;53.370;6.770;2023-06-19T07:19:32;8.35;;;7.22;;
48849;SDS011;63210;53.370;6.770;2023-06-19T07:21:57;11.32;;;6.55;;
48849;SDS011;63210;53.370;6.770;2023-06-19T07:24:22;6.07;;;5.17;;
48849;SDS011;63210;53.370;6.770;2023-06-19T07:26:48;8.75;;;6.80;;
48849;SDS011;63210;53.370;6.770;2023-06-19T07:29:14;9.00;;;7.38;;
48849;SDS011;63210;53.370;6.770;2023-06-19T07:31:39;8.75;;;6.72;;
48849;SDS011;63210;53.370;6.770;2023-06-19T07:34:07;7.40;;;6.22;;
48849;SDS011;63210;53.370;6.770;2023-06-19T07:36:33;8.48;;;6.80;;
48849;SDS011;63210;53.370;6.770;2023-06-19T07:38:58;6.90;;;5.77;;
48849;SDS011;63210;53.370;6.770;2023-06-19T07:41:23;13.23;;;9.63;;
48849;SDS011;63210;53.370;6.770;2023-06-19T07:43:49;11.88;;;9.30;;
48849;SDS011;63210;53.370;6.770;2023-06-19T07:46:14;10.90;;;9.77;;
48849;SDS011;63210;53.370;6.770;2023-06-19T07:48:40;12.23;;;9.70;;
48849;SDS011;63210;53.370;6.770;2023-06-19T07:51:05;14.93;;;12.60;;
48849;SDS011;63210;53.370;6.770;2023-06-19T07:53:31;15.07;;;11.77;;
48849;SDS011;63210;53.370;6.770;2023-06-19T07:55:56;14.17;;;12.67;;
48849;SDS011;63210;53.370;6.770;2023-06-19T07:58:21;13.80;;;12.03;;
48849;SDS011;63210;53.370;6.770;2023-06-19T08:00:48;16.52;;;14.73;;
48849;SDS011;63210;53.370;6.770;2023-06-19T08:03:13;19.37;;;16.07;;
48849;SDS011;63210;53.370;6.770;2023-06-19T08:05:38;18.95;;;15.40;;
48849;SDS011;63210;53.370;6.770;2023-06-19T08:08:04;25.67;;;18.47;;
48849;SDS011;63210;53.370;6.770;2023-06-19T08:10:29;22.67;;;18.10;;
48849;SDS011;63210;53.370;6.770;2023-06-19T08:12:54;24.98;;;18.30;;
48849;SDS011;63210;53.370;6.770;2023-06-19T08:15:19;24.13;;;19.10;;
48849;SDS011;63210;53.370;6.770;2023-06-19T08:17:45;23.67;;;19.08;;
48849;SDS011;63210;53.370;6.770;2023-06-19T08:20:10;26.50;;;20.17;;
48849;SDS011;63210;53.370;6.770;2023-06-19T08:22:36;30.15;;;21.10;;
48849;SDS011;63210;53.370;6.770;2023-06-19T08:25:01;26.07;;;19.43;;
48849;SDS011;63210;53.370;6.770;2023-06-19T08:27:27;24.35;;;18.67;;
48849;SDS011;63210;53.370;6.770;2023-06-19T08:29:52;27.00;;;19.80;;
48849;SDS011;63210;53.370;6.770;2023-06-19T08:32:17;26.73;;;19.87;;
48849;SDS011;63210;53.370;6.770;2023-06-19T08:34:42;26.20;;;19.40;;
48849;SDS011;63210;53.370;6.770;2023-06-19T08:37:08;30.05;;;17.58;;
48849;SDS011;63210;53.370;6.770;2023-06-19T08:39:34;23.67;;;17.75;;
48849;SDS011;63210;53.370;6.770;2023-06-19T08:41:59;25.52;;;18.55;;
48849;SDS011;63210;53.370;6.770;2023-06-19T08:44:24;21.20;;;16.10;;
48849;SDS011;63210;53.370;6.770;2023-06-19T08:46:50;20.13;;;14.60;;
48849;SDS011;63210;53.370;6.770;2023-06-19T08:49:15;19.13;;;13.80;;
48849;SDS011;63210;53.370;6.770;2023-06-19T08:51:40;16.45;;;12.48;;
48849;SDS011;63210;53.370;6.770;2023-06-19T08:54:06;15.00;;;10.30;;
48849;SDS011;63210;53.370;6.770;2023-06-19T08:56:32;14.10;;;11.77;;
48849;SDS011;63210;53.370;6.770;2023-06-19T08:59:12;14.00;;;11.43;;
48849;SDS011;63210;53.370;6.770;2023-06-19T09:01:38;17.23;;;11.25;;
48849;SDS011;63210;53.370;6.770;2023-06-19T09:04:10;19.45;;;10.60;;
48849;SDS011;63210;53.370;6.770;2023-06-19T09:06:36;14.82;;;9.93;;
48849;SDS011;63210;53.370;6.770;2023-06-19T09:09:04;9.75;;;8.40;;
48849;SDS011;63210;53.370;6.770;2023-06-19T09:11:31;11.80;;;8.52;;
48849;SDS011;63210;53.370;6.770;2023-06-19T09:13:57;11.35;;;8.55;;
48849;SDS011;63210;53.370;6.770;2023-06-19T09:16:23;9.27;;;8.38;;
48849;SDS011;63210;53.370;6.770;2023-06-19T09:18:49;11.55;;;8.45;;
48849;SDS011;63210;53.370;6.770;2023-06-19T09:21:15;9.02;;;7.28;;
48849;SDS011;63210;53.370;6.770;2023-06-19T09:23:41;8.85;;;7.55;;
48849;SDS011;63210;53.370;6.770;2023-06-19T09:26:06;9.43;;;7.07;;
48849;SDS011;63210;53.370;6.770;2023-06-19T09:28:31;7.72;;;5.22;;
48849;SDS011;63210;53.370;6.770;2023-06-19T09:31:03;8.73;;;5.22;;
48849;SDS011;63210;53.370;6.770;2023-06-19T09:33:31;7.90;;;4.82;;
48849;SDS011;63210;53.370;6.770;2023-06-19T09:35:57;8.40;;;4.97;;
48849;SDS011;63210;53.370;6.770;2023-06-19T09:38:27;6.35;;;5.28;;
48849;SDS011;63210;53.370;6.770;2023-06-19T09:40:53;6.47;;;5.63;;
48849;SDS011;63210;53.370;6.770;2023-06-19T09:43:19;6.80;;;5.50;;
48849;SDS011;63210;53.370;6.770;2023-06-19T09:45:48;9.63;;;5.93;;
48849;SDS011;63210;53.370;6.770;2023-06-19T09:48:14;7.53;;;6.25;;
48849;SDS011;63210;53.370;6.770;2023-06-19T09:50:39;8.52;;;5.60;;
48849;SDS011;63210;53.370;6.770;2023-06-19T09:53:06;7.57;;;6.18;;
48849;SDS011;63210;53.370;6.770;2023-06-19T09:55:32;12.05;;;6.50;;
48849;SDS011;63210;53.370;6.770;2023-06-19T09:57:58;8.13;;;6.13;;
48849;SDS011;63210;53.370;6.770;2023-06-19T10:00:23;11.82;;;7.18;;
48849;SDS011;63210;53.370;6.770;2023-06-19T10:02:56;7.97;;;6.45;;
48849;SDS011;63210;53.370;6.770;2023-06-19T10:05:32;7.28;;;6.28;;
48849;SDS011;63210;53.370;6.770;2023-06-19T10:07:57;7.57;;;6.55;;
48849;SDS011;63210;53.370;6.770;2023-06-19T10:10:25;11.40;;;7.85;;
48849;SDS011;63210;53.370;6.770;2023-06-19T10:12:51;11.70;;;7.88;;
48849;SDS011;63210;53.370;6.770;2023-06-19T10:15:27;11.70;;;8.63;;
48849;SDS011;63210;53.370;6.770;2023-06-19T10:20:22;10.77;;;8.57;;
48849;SDS011;63210;53.370;6.770;2023-06-19T10:22:58;14.60;;;8.55;;
48849;SDS011;63210;53.370;6.770;2023-06-19T10:25:24;12.23;;;9.52;;
48849;SDS011;63210;53.370;6.770;2023-06-19T10:27:49;12.93;;;9.13;;
48849;SDS011;63210;53.370;6.770;2023-06-19T10:30:18;10.60;;;8.98;;
48849;SDS011;63210;53.370;6.770;2023-06-19T10:32:47;11.20;;;8.68;;
48849;SDS011;63210;53.370;6.770;2023-06-19T10:35:12;10.27;;;9.05;;
48849;SDS011;63210;53.370;6.770;2023-06-19T10:37:38;13.07;;;9.77;;
48849;SDS011;63210;53.370;6.770;2023-06-19T10:40:03;12.98;;;9.50;;
48849;SDS011;63210;53.370;6.770;2023-06-19T10:42:33;13.17;;;9.47;;
48849;SDS011;63210;53.370;6.770;2023-06-19T10:44:59;14.52;;;10.25;;
48849;SDS011;63210;53.370;6.770;2023-06-19T10:47:24;12.55;;;10.38;;
48849;SDS011;63210;53.370;6.770;2023-06-19T10:49:50;13.80;;;10.77;;
48849;SDS011;63210;53.370;6.770;2023-06-19T10:52:16;12.98;;;10.57;;
48849;SDS011;63210;53.370;6.770;2023-06-19T10:54:43;14.02;;;10.57;;
48849;SDS011;63210;53.370;6.770;2023-06-19T10:57:08;12.90;;;9.90;;
48849;SDS011;63210;53.370;6.770;2023-06-19T10:59:34;10.97;;;9.50;;
48849;SDS011;63210;53.370;6.770;2023-06-19T11:01:59;12.50;;;9.65;;
48849;SDS011;63210;53.370;6.770;2023-06-19T11:04:25;11.82;;;8.77;;
48849;SDS011;63210;53.370;6.770;2023-06-19T11:06:50;16.20;;;9.55;;
48849;SDS011;63210;53.370;6.770;2023-06-19T11:09:15;10.45;;;8.77;;
48849;SDS011;63210;53.370;6.770;2023-06-19T11:14:06;13.37;;;10.30;;
48849;SDS011;63210;53.370;6.770;2023-06-19T11:16:32;14.30;;;10.55;;
48849;SDS011;63210;53.370;6.770;2023-06-19T11:18:58;13.85;;;10.50;;
48849;SDS011;63210;53.370;6.770;2023-06-19T11:21:30;11.97;;;9.40;;
48849;SDS011;63210;53.370;6.770;2023-06-19T11:23:57;11.70;;;9.65;;
48849;SDS011;63210;53.370;6.770;2023-06-19T11:26:24;11.63;;;9.98;;
48849;SDS011;63210;53.370;6.770;2023-06-19T11:28:49;15.57;;;9.43;;
48849;SDS011;63210;53.370;6.770;2023-06-19T11:31:15;12.87;;;9.43;;
48849;SDS011;63210;53.370;6.770;2023-06-19T11:33:40;9.45;;;8.45;;
48849;SDS011;63210;53.370;6.770;2023-06-19T11:36:05;12.77;;;8.70;;
48849;SDS011;63210;53.370;6.770;2023-06-19T11:38:31;10.77;;;8.98;;
48849;SDS011;63210;53.370;6.770;2023-06-19T11:40:56;13.00;;;8.88;;
48849;SDS011;63210;53.370;6.770;2023-06-19T11:43:25;12.32;;;8.93;;
48849;SDS011;63210;53.370;6.770;2023-06-19T11:45:51;12.77;;;8.65;;
48849;SDS011;63210;53.370;6.770;2023-06-19T11:48:24;9.80;;;8.50;;
48849;SDS011;63210;53.370;6.770;2023-06-19T11:50:49;11.20;;;9.00;;
48849;SDS011;63210;53.370;6.770;2023-06-19T11:53:16;14.00;;;8.23;;
48849;SDS011;63210;53.370;6.770;2023-06-19T11:55:41;9.25;;;7.22;;
48849;SDS011;63210;53.370;6.770;2023-06-19T11:58:06;10.95;;;8.60;;
48849;SDS011;63210;53.370;6.770;2023-06-19T12:00:32;11.70;;;8.95;;
48849;SDS011;63210;53.370;6.770;2023-06-19T12:02:57;13.98;;;8.95;;
48849;SDS011;63210;53.370;6.770;2023-06-19T12:05:23;11.93;;;8.05;;
48849;SDS011;63210;53.370;6.770;2023-06-19T12:07:49;13.27;;;9.02;;
48849;SDS011;63210;53.370;6.770;2023-06-19T12:10:14;13.03;;;8.70;;
48849;SDS011;63210;53.370;6.770;2023-06-19T12:12:39;15.88;;;10.38;;
48849;SDS011;63210;53.370;6.770;2023-06-19T12:15:05;13.02;;;8.77;;
48849;SDS011;63210;53.370;6.770;2023-06-19T12:17:30;13.43;;;10.23;;
48849;SDS011;63210;53.370;6.770;2023-06-19T12:19:56;12.32;;;9.20;;
48849;SDS011;63210;53.370;6.770;2023-06-19T12:22:21;12.93;;;9.77;;
48849;SDS011;63210;53.370;6.770;2023-06-19T12:24:46;15.93;;;10.07;;
48849;SDS011;63210;53.370;6.770;2023-06-19T12:27:12;12.07;;;9.20;;
48849;SDS011;63210;53.370;6.770;2023-06-19T12:29:37;11.33;;;9.07;;
48849;SDS011;63210;53.370;6.770;2023-06-19T12:32:02;14.32;;;10.48;;
48849;SDS011;63210;53.370;6.770;2023-06-19T12:34:28;11.32;;;9.40;;
48849;SDS011;63210;53.370;6.770;2023-06-19T12:36:53;12.57;;;8.98;;
48849;SDS011;63210;53.370;6.770;2023-06-19T12:39:19;13.20;;;8.90;;
48849;SDS011;63210;53.370;6.770;2023-06-19T12:41:44;12.75;;;10.45;;
48849;SDS011;63210;53.370;6.770;2023-06-19T12:44:10;15.32;;;11.13;;
48849;SDS011;63210;53.370;6.770;2023-06-19T12:46:35;14.93;;;10.63;;
48849;SDS011;63210;53.370;6.770;2023-06-19T12:49:00;15.73;;;11.52;;
48849;SDS011;63210;53.370;6.770;2023-06-19T12:51:26;13.38;;;10.80;;
48849;SDS011;63210;53.370;6.770;2023-06-19T12:53:51;11.33;;;9.20;;
48849;SDS011;63210;53.370;6.770;2023-06-19T12:56:16;11.67;;;10.30;;
48849;SDS011;63210;53.370;6.770;2023-06-19T12:58:41;13.50;;;10.25;;
48849;SDS011;63210;53.370;6.770;2023-06-19T13:01:06;14.33;;;11.07;;
48849;SDS011;63210;53.370;6.770;2023-06-19T13:03:32;14.15;;;10.60;;
48849;SDS011;63210;53.370;6.770;2023-06-19T13:05:57;12.70;;;11.13;;
48849;SDS011;63210;53.370;6.770;2023-06-19T13:08:22;15.15;;;9.73;;
48849;SDS011;63210;53.370;6.770;2023-06-19T13:10:48;12.15;;;9.35;;
48849;SDS011;63210;53.370;6.770;2023-06-19T13:13:13;15.00;;;10.87;;
48849;SDS011;63210;53.370;6.770;2023-06-19T13:15:38;17.73;;;10.43;;
48849;SDS011;63210;53.370;6.770;2023-06-19T13:18:03;12.57;;;10.45;;
48849;SDS011;63210;53.370;6.770;2023-06-19T13:20:29;13.40;;;10.57;;
48849;SDS011;63210;53.370;6.770;2023-06-19T13:22:54;12.75;;;9.23;;
48849;SDS011;63210;53.370;6.770;2023-06-19T13:25:20;14.90;;;9.95;;
48849;SDS011;63210;53.370;6.770;2023-06-19T13:27:45;14.88;;;9.55;;
48849;SDS011;63210;53.370;6.770;2023-06-19T13:30:10;12.32;;;9.20;;
48849;SDS011;63210;53.370;6.770;2023-06-19T13:32:36;13.20;;;8.48;;
48849;SDS011;63210;53.370;6.770;2023-06-19T13:35:02;14.65;;;8.88;;
48849;SDS011;63210;53.370;6.770;2023-06-19T13:37:28;11.05;;;8.30;;
48849;SDS011;63210;53.370;6.770;2023-06-19T13:39:53;11.43;;;8.97;;
48849;SDS011;63210;53.370;6.770;2023-06-19T13:42:18;13.02;;;8.80;;
48849;SDS011;63210;53.370;6.770;2023-06-19T13:44:43;12.73;;;9.10;;
48849;SDS011;63210;53.370;6.770;2023-06-19T13:47:09;11.33;;;7.50;;
48849;SDS011;63210;53.370;6.770;2023-06-19T13:49:34;13.20;;;8.73;;
48849;SDS011;63210;53.370;6.770;2023-06-19T13:51:59;15.37;;;7.13;;
48849;SDS011;63210;53.370;6.770;2023-06-19T13:54:24;11.00;;;7.40;;
48849;SDS011;63210;53.370;6.770;2023-06-19T13:56:50;10.98;;;7.45;;
48849;SDS011;63210;53.370;6.770;2023-06-19T13:59:16;10.30;;;7.25;;
48849;SDS011;63210;53.370;6.770;2023-06-19T14:01:41;8.50;;;6.55;;
48849;SDS011;63210;53.370;6.770;2023-06-19T14:04:07;8.43;;;6.80;;
48849;SDS011;63210;53.370;6.770;2023-06-19T14:06:33;15.75;;;7.95;;
48849;SDS011;63210;53.370;6.770;2023-06-19T14:08:59;9.90;;;6.90;;
48849;SDS011;63210;53.370;6.770;2023-06-19T14:11:24;9.17;;;6.90;;
48849;SDS011;63210;53.370;6.770;2023-06-19T14:13:49;13.30;;;8.23;;
48849;SDS011;63210;53.370;6.770;2023-06-19T14:16:15;11.30;;;7.80;;
48849;SDS011;63210;53.370;6.770;2023-06-19T14:18:40;11.48;;;7.65;;
48849;SDS011;63210;53.370;6.770;2023-06-19T14:21:05;8.02;;;7.20;;
48849;SDS011;63210;53.370;6.770;2023-06-19T14:23:31;9.70;;;7.07;;
48849;SDS011;63210;53.370;6.770;2023-06-19T14:25:59;10.10;;;7.20;;
48849;SDS011;63210;53.370;6.770;2023-06-19T14:28:24;7.85;;;7.03;;
48849;SDS011;63210;53.370;6.770;2023-06-19T14:30:49;11.17;;;6.57;;
48849;SDS011;63210;53.370;6.770;2023-06-19T14:33:14;10.23;;;6.70;;
48849;SDS011;63210;53.370;6.770;2023-06-19T14:35:41;9.10;;;6.28;;
48849;SDS011;63210;53.370;6.770;2023-06-19T14:38:06;9.00;;;6.03;;
48849;SDS011;63210;53.370;6.770;2023-06-19T14:40:31;8.87;;;6.30;;